createdAt,value
2022-12-19T00:00:13.953Z,87.9873046875
2022-12-19T00:01:10.500Z,87.5185546875
2022-12-19T00:02:11.075Z,87.875
2022-12-19T00:03:10.631Z,87.814453125
2022-12-19T00:04:10.557Z,88.0771484375
2022-12-19T00:05:10.502Z,87.9736328125
2022-12-19T00:06:10.925Z,87.8603515625
2022-12-19T00:07:10.851Z,88.51953125
2022-12-19T00:08:17.121Z,89.5732421875
2022-12-19T00:09:10.490Z,90.0849609375
2022-12-19T00:10:13.646Z,90.314453125
2022-12-19T00:11:10.714Z,90.693359375
2022-12-19T00:12:15.920Z,90.490234375
2022-12-19T00:13:10.575Z,90.091796875
2022-12-19T00:14:10.503Z,90.1396484375
2022-12-19T00:15:10.496Z,90.158203125
2022-12-19T00:16:10.592Z,90.154296875
2022-12-19T00:17:11.698Z,89.99609375
2022-12-19T00:18:10.636Z,89.5703125
2022-12-19T00:19:10.491Z,89.7333984375
2022-12-19T00:20:10.569Z,89.666015625
2022-12-19T00:21:16.513Z,89.400390625
2022-12-19T00:22:11.394Z,89.74609375
2022-12-19T00:23:10.945Z,89.9619140625
2022-12-19T00:24:18.438Z,89.1787109375
2022-12-19T00:25:10.504Z,88.8203125
2022-12-19T00:26:10.604Z,88.7412109375
2022-12-19T00:27:10.625Z,88.607421875
2022-12-19T00:28:10.947Z,88.173828125
2022-12-19T00:29:14.304Z,88.4765625
2022-12-19T00:30:12.604Z,88.4169921875
2022-12-19T00:31:10.560Z,88.1669921875
2022-12-19T00:32:13.734Z,88.4267578125
2022-12-19T00:33:10.872Z,88.5302734375
2022-12-19T00:34:11.042Z,88.6357421875
2022-12-19T00:35:10.642Z,88.1708984375
2022-12-19T00:36:10.502Z,88.2470703125
2022-12-19T00:37:10.592Z,88.486328125
2022-12-19T00:38:10.865Z,88.783203125
2022-12-19T00:39:10.617Z,88.8515625
2022-12-19T00:40:10.566Z,88.677734375
2022-12-19T00:41:10.722Z,88.96875
2022-12-19T00:42:10.571Z,89.1591796875
2022-12-19T00:43:16.606Z,89.6982421875
2022-12-19T00:44:10.577Z,89.525390625
2022-12-19T00:45:10.611Z,89.328125
2022-12-19T00:46:10.633Z,88.970703125
2022-12-19T00:47:10.497Z,88.8076171875
2022-12-19T00:48:10.942Z,88.8525390625
2022-12-19T00:49:13.874Z,89.3583984375
2022-12-19T00:50:10.580Z,89.359375
2022-12-19T00:51:10.490Z,89.26953125
2022-12-19T00:52:10.698Z,89.00390625
2022-12-19T00:53:10.951Z,88.59375
2022-12-19T00:54:10.641Z,88.541015625
2022-12-19T00:55:14.150Z,88.8720703125
2022-12-19T00:56:10.606Z,88.783203125
2022-12-19T00:57:10.598Z,88.615234375
2022-12-19T00:58:10.946Z,88.205078125
2022-12-19T00:59:10.850Z,88.111328125
2022-12-19T01:00:13.568Z,88.13671875
2022-12-19T01:01:10.776Z,88.2216796875
2022-12-19T01:02:10.823Z,87.779296875
2022-12-19T01:03:10.933Z,87.1279296875
2022-12-19T01:04:31.121Z,86.9462890625
2022-12-19T01:05:10.524Z,87.185546875
2022-12-19T01:06:10.597Z,87.6171875
2022-12-19T01:07:10.662Z,87.72265625
2022-12-19T01:08:10.937Z,87.5234375
2022-12-19T01:09:10.629Z,87.4404296875
2022-12-19T01:10:10.604Z,87.294921875
2022-12-19T01:11:13.696Z,87.5673828125
2022-12-19T01:12:10.681Z,87.2587890625
2022-12-19T01:13:10.946Z,86.59765625
2022-12-19T01:14:10.565Z,86.5576171875
2022-12-19T01:15:10.693Z,86.3818359375
2022-12-19T01:16:10.511Z,86.3935546875
2022-12-19T01:17:10.501Z,86.591796875
2022-12-19T01:18:11.015Z,87.08984375
2022-12-19T01:19:11.443Z,87.08203125
2022-12-19T01:20:10.567Z,87.5615234375
2022-12-19T01:21:10.481Z,87.7177734375
2022-12-19T01:22:13.617Z,87.923828125
2022-12-19T01:23:10.862Z,87.5859375
2022-12-19T01:24:10.636Z,87.064453125
2022-12-19T01:25:10.557Z,86.609375
2022-12-19T01:26:10.581Z,86.8798828125
2022-12-19T01:27:10.584Z,87.0771484375
2022-12-19T01:28:10.871Z,86.7880859375
2022-12-19T01:29:10.488Z,86.2880859375
2022-12-19T01:30:10.594Z,86.74609375
2022-12-19T01:31:10.665Z,86.7412109375
2022-12-19T01:32:10.483Z,86.375
2022-12-19T01:33:10.943Z,86.130859375
2022-12-19T01:34:10.868Z,86.1728515625
2022-12-19T01:35:20.814Z,86.232421875
2022-12-19T01:36:10.569Z,86.357421875
2022-12-19T01:37:10.595Z,86.279296875
2022-12-19T01:38:16.548Z,86.9052734375
2022-12-19T01:39:10.579Z,87.2724609375
2022-12-19T01:40:10.607Z,87.1513671875
2022-12-19T01:41:10.495Z,86.9599609375
2022-12-19T01:42:10.489Z,86.5380859375
2022-12-19T01:43:10.938Z,86.6572265625
2022-12-19T01:44:13.655Z,86.3212890625
2022-12-19T01:45:13.830Z,86.6142578125
2022-12-19T01:46:10.566Z,87.0234375
2022-12-19T01:47:10.589Z,86.6376953125
2022-12-19T01:48:10.941Z,86.875
2022-12-19T01:49:10.865Z,87.5517578125
2022-12-19T01:50:10.573Z,87.9892578125
2022-12-19T01:51:10.569Z,88.6337890625
2022-12-19T01:52:12.892Z,89.3486328125
2022-12-19T01:53:10.982Z,90.951171875
2022-12-19T01:54:10.685Z,91.4267578125
2022-12-19T01:55:10.621Z,91.984375
2022-12-19T01:56:10.455Z,92.572265625
2022-12-19T01:57:10.609Z,92.7998046875
2022-12-19T01:58:10.836Z,93.818359375
2022-12-19T01:59:10.698Z,94.107421875
2022-12-19T02:00:13.509Z,93.8154296875
2022-12-19T02:01:10.568Z,94.439453125
2022-12-19T02:02:10.813Z,95.41015625
2022-12-19T02:03:10.876Z,97.2587890625
2022-12-19T02:04:10.887Z,98.1884765625
2022-12-19T02:05:10.467Z,97.52734375
2022-12-19T02:06:10.601Z,98.3798828125
2022-12-19T02:07:15.839Z,99.68359375
2022-12-19T02:08:10.925Z,100
2022-12-19T02:09:10.622Z,100
2022-12-19T02:10:10.692Z,100
2022-12-19T02:11:13.614Z,100
2022-12-19T02:12:10.653Z,100
2022-12-19T02:13:10.837Z,0
2022-12-19T02:14:10.700Z,0
2022-12-19T02:15:10.532Z,0
2022-12-19T02:16:10.517Z,0
2022-12-19T02:17:10.591Z,0
2022-12-19T02:18:10.837Z,0
2022-12-19T02:19:11.796Z,0
2022-12-19T02:20:10.487Z,0
2022-12-19T02:21:10.462Z,0
2022-12-19T02:22:18.755Z,0
2022-12-19T02:23:10.852Z,0
2022-12-19T02:24:10.549Z,0
2022-12-19T02:25:10.595Z,0
2022-12-19T02:26:10.567Z,0
2022-12-19T02:27:10.469Z,0
2022-12-19T02:28:10.846Z,0
2022-12-19T02:29:10.570Z,0
2022-12-19T02:30:10.542Z,0
2022-12-19T02:31:17.517Z,0
2022-12-19T02:32:10.490Z,0
2022-12-19T02:33:16.571Z,0
2022-12-19T02:34:10.851Z,0
2022-12-19T02:35:10.555Z,0
2022-12-19T02:36:10.470Z,0
2022-12-19T02:37:10.482Z,0
2022-12-19T02:38:13.153Z,0
2022-12-19T02:39:10.683Z,0
2022-12-19T02:40:10.703Z,0
2022-12-19T02:41:10.682Z,0
2022-12-19T02:42:10.470Z,0
2022-12-19T02:43:10.927Z,0
2022-12-19T02:44:10.487Z,0
2022-12-19T02:45:10.493Z,0
2022-12-19T02:46:10.561Z,0
2022-12-19T02:47:10.580Z,0
2022-12-19T02:48:12.289Z,0
2022-12-19T02:49:10.879Z,0
2022-12-19T02:50:10.492Z,0
2022-12-19T02:51:10.498Z,0
2022-12-19T02:52:10.711Z,0
2022-12-19T02:53:10.856Z,0
2022-12-19T02:54:13.566Z,0
2022-12-19T02:55:10.491Z,0
2022-12-19T02:56:10.799Z,0
2022-12-19T02:57:10.681Z,0
2022-12-19T02:58:10.875Z,0
2022-12-19T02:59:10.665Z,0
2022-12-19T03:00:10.505Z,0
2022-12-19T03:01:10.546Z,0
2022-12-19T03:02:10.660Z,0
2022-12-19T03:03:11.081Z,0
2022-12-19T03:04:10.691Z,0
2022-12-19T03:05:10.490Z,0
2022-12-19T03:06:10.575Z,0
2022-12-19T03:07:10.510Z,0
2022-12-19T03:08:11.185Z,0
2022-12-19T03:09:10.677Z,0
2022-12-19T03:10:13.481Z,0
2022-12-19T03:11:10.584Z,0
2022-12-19T03:12:15.745Z,0
2022-12-19T03:13:10.878Z,0
2022-12-19T03:14:10.593Z,0
2022-12-19T03:15:10.508Z,0
2022-12-19T03:16:10.516Z,0
2022-12-19T03:17:10.487Z,0
2022-12-19T03:18:10.996Z,0
2022-12-19T03:19:10.701Z,0
2022-12-19T03:20:10.604Z,0
2022-12-19T03:21:13.586Z,0
2022-12-19T03:22:10.593Z,0
2022-12-19T03:23:10.871Z,0
2022-12-19T03:24:10.601Z,0
2022-12-19T03:25:10.502Z,0
2022-12-19T03:26:10.588Z,0
2022-12-19T03:27:10.616Z,0
2022-12-19T03:28:10.948Z,0
2022-12-19T03:29:10.682Z,0
2022-12-19T03:30:10.487Z,0
2022-12-19T03:31:10.751Z,0
2022-12-19T03:32:13.542Z,0
2022-12-19T03:33:10.887Z,0
2022-12-19T03:34:11.019Z,0
2022-12-19T03:35:10.586Z,0
2022-12-19T03:36:10.682Z,0
2022-12-19T03:37:10.668Z,0
2022-12-19T03:38:10.884Z,0
2022-12-19T03:39:10.529Z,0
2022-12-19T03:40:10.494Z,0
2022-12-19T03:41:10.494Z,0
2022-12-19T03:42:10.491Z,0
2022-12-19T03:43:13.644Z,0
2022-12-19T03:44:10.588Z,0
2022-12-19T03:45:10.485Z,0
2022-12-19T03:46:10.656Z,0
2022-12-19T03:47:10.595Z,0
2022-12-19T03:48:10.962Z,0
2022-12-19T03:49:10.924Z,0
2022-12-19T03:50:10.552Z,0
2022-12-19T03:51:10.604Z,0
2022-12-19T03:52:10.507Z,0
2022-12-19T03:53:10.967Z,0
2022-12-19T03:54:13.658Z,0
2022-12-19T03:55:10.688Z,0
2022-12-19T03:56:10.594Z,0
2022-12-19T03:57:10.528Z,0
2022-12-19T03:58:10.959Z,0
2022-12-19T03:59:10.697Z,0
2022-12-19T04:00:10.495Z,0
2022-12-19T04:01:10.680Z,0
2022-12-19T04:02:10.739Z,0
2022-12-19T04:03:11.025Z,0
2022-12-19T04:04:10.905Z,0
2022-12-19T04:05:13.516Z,0
2022-12-19T04:06:10.599Z,0
2022-12-19T04:07:10.617Z,0
2022-12-19T04:08:10.683Z,0
2022-12-19T04:09:10.595Z,0
2022-12-19T04:10:10.630Z,0
2022-12-19T04:11:10.645Z,0
2022-12-19T04:12:10.536Z,0
2022-12-19T04:13:10.885Z,0
2022-12-19T04:14:10.611Z,0
2022-12-19T04:15:10.522Z,0
2022-12-19T04:16:13.613Z,0
2022-12-19T04:17:10.603Z,0
2022-12-19T04:18:10.632Z,0
2022-12-19T04:19:10.878Z,0
2022-12-19T04:20:10.497Z,0
2022-12-19T04:21:10.517Z,0
2022-12-19T04:22:10.644Z,0
2022-12-19T04:23:10.959Z,0
2022-12-19T04:24:10.600Z,0
2022-12-19T04:25:10.515Z,0
2022-12-19T04:26:10.605Z,100
2022-12-19T04:27:13.678Z,0
2022-12-19T04:28:10.887Z,0
2022-12-19T04:29:10.732Z,0
2022-12-19T04:30:10.700Z,0
2022-12-19T04:31:10.637Z,0
2022-12-19T04:32:10.615Z,0
2022-12-19T04:33:10.884Z,0
2022-12-19T04:34:10.646Z,0
2022-12-19T04:35:10.549Z,0
2022-12-19T04:36:10.606Z,0
2022-12-19T04:37:10.569Z,0
2022-12-19T04:38:13.549Z,0
2022-12-19T04:39:10.597Z,100
2022-12-19T04:40:10.629Z,98.9638671875
2022-12-19T04:41:10.782Z,99.6669921875
2022-12-19T04:42:10.579Z,99.955078125
2022-12-19T04:43:10.976Z,99.97265625
2022-12-19T04:44:13.640Z,99.423828125
2022-12-19T04:45:10.580Z,99.0732421875
2022-12-19T04:46:10.564Z,99.2939453125
2022-12-19T04:47:10.519Z,98.4287109375
2022-12-19T04:48:10.950Z,96.8681640625
2022-12-19T04:49:10.882Z,96.8134765625
2022-12-19T04:50:13.649Z,97.4150390625
2022-12-19T04:51:10.602Z,97.095703125
2022-12-19T04:52:10.619Z,97.4189453125
2022-12-19T04:53:10.891Z,96.9443359375
2022-12-19T04:54:10.600Z,96.3212890625
2022-12-19T04:55:10.500Z,97.0458984375
2022-12-19T04:56:10.658Z,96.5517578125
2022-12-19T04:57:10.679Z,96.0927734375
2022-12-19T04:58:11.028Z,96.2705078125
2022-12-19T04:59:10.735Z,95.8818359375
2022-12-19T05:00:10.741Z,95.8564453125
2022-12-19T05:01:13.676Z,95.7451171875
2022-12-19T05:02:10.670Z,95.837890625
2022-12-19T05:03:11.028Z,95.80078125
2022-12-19T05:04:10.921Z,95.45703125
2022-12-19T05:05:10.622Z,95.384765625
2022-12-19T05:06:10.683Z,94.9375
2022-12-19T05:07:10.603Z,95.1806640625
2022-12-19T05:08:10.958Z,95.3642578125
2022-12-19T05:09:10.701Z,95.4169921875
2022-12-19T05:10:10.736Z,95.2041015625
2022-12-19T05:11:13.358Z,95.4833984375
2022-12-19T05:12:10.668Z,95.8232421875
2022-12-19T05:13:10.957Z,97.052734375
2022-12-19T05:14:10.684Z,98.517578125
2022-12-19T05:15:10.694Z,99.5751953125
2022-12-19T05:16:10.663Z,99.8935546875
2022-12-19T05:17:13.513Z,100
2022-12-19T05:18:10.629Z,0
2022-12-19T05:19:11.006Z,0
2022-12-19T05:20:10.596Z,0
2022-12-19T05:21:10.492Z,0
2022-12-19T05:22:10.584Z,0
2022-12-19T05:23:17.907Z,0
2022-12-19T05:24:10.493Z,0
2022-12-19T05:25:10.534Z,0
2022-12-19T05:26:10.524Z,0
2022-12-19T05:27:10.604Z,0
2022-12-19T05:28:10.618Z,0
2022-12-19T05:29:13.546Z,0
2022-12-19T05:30:10.693Z,0
2022-12-19T05:31:10.649Z,0
2022-12-19T05:32:10.497Z,0
2022-12-19T05:33:10.884Z,0
2022-12-19T05:34:11.023Z,0
2022-12-19T05:35:10.508Z,0
2022-12-19T05:36:10.518Z,0
2022-12-19T05:37:10.616Z,0
2022-12-19T05:38:10.958Z,0
2022-12-19T05:39:10.592Z,0
2022-12-19T05:40:13.637Z,0
2022-12-19T05:41:10.735Z,0
2022-12-19T05:42:12.329Z,0
2022-12-19T05:43:10.705Z,0
2022-12-19T05:44:10.622Z,0
2022-12-19T05:45:10.519Z,0
2022-12-19T05:46:10.528Z,0
2022-12-19T05:47:11.017Z,0
2022-12-19T05:48:10.712Z,0
2022-12-19T05:49:10.541Z,0
2022-12-19T05:50:10.726Z,0
2022-12-19T05:51:13.502Z,0
2022-12-19T05:52:11.004Z,0
2022-12-19T05:53:10.509Z,0
2022-12-19T05:54:10.602Z,0
2022-12-19T05:55:10.487Z,0
2022-12-19T05:56:10.603Z,0
2022-12-19T05:57:10.875Z,0
2022-12-19T05:58:10.624Z,0
2022-12-19T05:59:10.715Z,0
2022-12-19T06:00:10.713Z,0
2022-12-19T06:01:10.498Z,0
2022-12-19T06:02:11.038Z,0
2022-12-19T06:03:10.763Z,0
2022-12-19T06:04:10.881Z,0
2022-12-19T06:05:10.489Z,0
2022-12-19T06:06:10.594Z,0
2022-12-19T06:07:20.711Z,0
2022-12-19T06:08:10.691Z,0
2022-12-19T06:09:10.719Z,0
2022-12-19T06:10:10.585Z,100
2022-12-19T06:11:10.726Z,0
2022-12-19T06:12:10.958Z,0
2022-12-19T06:13:10.621Z,0
2022-12-19T06:14:10.572Z,0
2022-12-19T06:15:10.499Z,0
2022-12-19T06:16:11.092Z,0
2022-12-19T06:17:10.631Z,0
2022-12-19T06:18:13.532Z,0
2022-12-19T06:19:10.884Z,0
2022-12-19T06:20:10.708Z,0
2022-12-19T06:21:10.863Z,0
2022-12-19T06:22:10.562Z,99.8671875
2022-12-19T06:23:10.585Z,0
2022-12-19T06:24:10.501Z,99.2275390625
2022-12-19T06:25:10.606Z,98.4658203125
2022-12-19T06:26:15.541Z,98.7626953125
2022-12-19T06:27:10.603Z,98.7060546875
2022-12-19T06:28:10.635Z,98.5888671875
2022-12-19T06:29:13.592Z,98.078125
2022-12-19T06:30:10.611Z,98.0634765625
2022-12-19T06:31:11.042Z,98.1826171875
2022-12-19T06:32:10.567Z,98.5908203125
2022-12-19T06:33:10.586Z,98.0322265625
2022-12-19T06:34:11.170Z,97.4892578125
2022-12-19T06:35:10.644Z,97.341796875
2022-12-19T06:36:10.542Z,98.3359375
2022-12-19T06:37:10.489Z,99.1279296875
2022-12-19T06:38:10.621Z,98.1240234375
2022-12-19T06:39:10.701Z,98.8701171875
2022-12-19T06:40:13.611Z,98.9384765625
2022-12-19T06:41:10.886Z,99.861328125
2022-12-19T06:42:10.688Z,99.8759765625
2022-12-19T06:43:10.597Z,99.9326171875
2022-12-19T06:44:10.662Z,98.8896484375
2022-12-19T06:45:10.708Z,98.9296875
2022-12-19T06:46:16.679Z,0
2022-12-19T06:47:10.599Z,0
2022-12-19T06:48:10.511Z,0
2022-12-19T06:49:10.957Z,100
2022-12-19T06:50:10.559Z,0
2022-12-19T06:51:10.958Z,0
2022-12-19T06:52:10.499Z,0
2022-12-19T06:53:10.610Z,99.9189453125
2022-12-19T06:54:10.673Z,99.6650390625
2022-12-19T06:55:10.605Z,99.6162109375
2022-12-19T06:56:10.939Z,99.9326171875
2022-12-19T06:57:13.630Z,99.9521484375
2022-12-19T06:58:10.585Z,100
2022-12-19T06:59:10.495Z,99.9287109375
2022-12-19T07:00:10.512Z,99.7900390625
2022-12-19T07:01:11.021Z,99.2451171875
2022-12-19T07:02:10.694Z,98.4599609375
2022-12-19T07:03:10.674Z,97.8505859375
2022-12-19T07:04:10.949Z,97.814453125
2022-12-19T07:05:10.671Z,97.765625
2022-12-19T07:06:11.011Z,97.232421875
2022-12-19T07:07:10.604Z,97.33203125
2022-12-19T07:08:10.614Z,96.8720703125
2022-12-19T07:09:10.589Z,97.197265625
2022-12-19T07:10:10.505Z,96.9765625
2022-12-19T07:11:10.884Z,96.732421875
2022-12-19T07:12:10.626Z,96.0537109375
2022-12-19T07:13:13.499Z,95.5322265625
2022-12-19T07:14:10.682Z,94.953125
2022-12-19T07:15:10.504Z,95.080078125
2022-12-19T07:16:11.063Z,94.439453125
2022-12-19T07:17:10.725Z,94.4990234375
2022-12-19T07:18:10.589Z,94.9443359375
2022-12-19T07:19:10.518Z,94.466796875
2022-12-19T07:20:10.488Z,93.9072265625
2022-12-19T07:21:10.868Z,93.6904296875
2022-12-19T07:22:10.570Z,93.2822265625
2022-12-19T07:23:10.502Z,93.0927734375
2022-12-19T07:24:10.516Z,93.1494140625
2022-12-19T07:25:10.586Z,92.6748046875
2022-12-19T07:26:10.941Z,92.5576171875
2022-12-19T07:27:10.623Z,92.185546875
2022-12-19T07:28:10.499Z,92.0947265625
2022-12-19T07:29:13.633Z,92.16015625
2022-12-19T07:30:10.683Z,91.9248046875
2022-12-19T07:31:10.973Z,92.1806640625
2022-12-19T07:32:10.615Z,91.826171875
2022-12-19T07:33:11.872Z,92.1513671875
2022-12-19T07:34:10.976Z,91.7890625
2022-12-19T07:35:10.508Z,91.3984375
2022-12-19T07:36:11.506Z,91.22265625
2022-12-19T07:37:10.570Z,91.205078125
2022-12-19T07:38:10.505Z,91.013671875
2022-12-19T07:39:10.588Z,90.9775390625
2022-12-19T07:40:13.635Z,91.37890625
2022-12-19T07:41:10.882Z,91.361328125
2022-12-19T07:42:10.685Z,91.525390625
2022-12-19T07:43:10.528Z,91.35546875
2022-12-19T07:44:10.521Z,91.0390625
2022-12-19T07:45:10.488Z,90.462890625
2022-12-19T07:46:10.899Z,90.763671875
2022-12-19T07:47:10.489Z,91.2578125
2022-12-19T07:48:10.489Z,91.4052734375
2022-12-19T07:49:10.870Z,91.0400390625
2022-12-19T07:50:10.608Z,90.9912109375
2022-12-19T07:51:10.874Z,91.140625
2022-12-19T07:52:10.710Z,91.1806640625
2022-12-19T07:53:10.557Z,91.1376953125
2022-12-19T07:54:10.614Z,91.0126953125
2022-12-19T07:55:10.489Z,90.6279296875
2022-12-19T07:56:13.650Z,89.845703125
2022-12-19T07:57:10.687Z,89.904296875
2022-12-19T07:58:10.609Z,89.8798828125
2022-12-19T07:59:10.561Z,90.341796875
2022-12-19T08:00:10.615Z,90.236328125
2022-12-19T08:01:10.987Z,90.208984375
2022-12-19T08:02:10.666Z,89.9619140625
2022-12-19T08:03:10.653Z,89.4580078125
2022-12-19T08:04:10.872Z,89.435546875
2022-12-19T08:05:10.482Z,90.3173828125
2022-12-19T08:06:11.008Z,91.3623046875
2022-12-19T08:07:13.524Z,91.5400390625
2022-12-19T08:08:10.614Z,91.94921875
2022-12-19T08:09:10.635Z,91.5419921875
2022-12-19T08:10:10.671Z,90.9013671875
2022-12-19T08:11:10.874Z,91.5546875
2022-12-19T08:12:10.615Z,92.5595703125
2022-12-19T08:13:10.493Z,93.7080078125
2022-12-19T08:14:10.551Z,95.1064453125
2022-12-19T08:15:11.305Z,95.224609375
2022-12-19T08:16:10.975Z,95.3740234375
2022-12-19T08:17:20.326Z,95.2431640625
2022-12-19T08:18:13.508Z,96.0537109375
2022-12-19T08:19:10.864Z,96.091796875
2022-12-19T08:20:10.490Z,96.6796875
2022-12-19T08:21:10.969Z,97.515625
2022-12-19T08:22:10.658Z,97.7783203125
2022-12-19T08:23:10.633Z,97.3193359375
2022-12-19T08:24:10.634Z,98.8935546875
2022-12-19T08:25:10.642Z,0
2022-12-19T08:26:10.873Z,0
2022-12-19T08:27:10.690Z,0
2022-12-19T08:28:10.557Z,0
2022-12-19T08:29:13.613Z,0
2022-12-19T08:30:10.580Z,0
2022-12-19T08:31:11.021Z,0
2022-12-19T08:32:13.307Z,0
2022-12-19T08:33:10.500Z,0
2022-12-19T08:34:10.948Z,0
2022-12-19T08:35:10.474Z,0
2022-12-19T08:36:10.878Z,0
2022-12-19T08:37:10.715Z,0
2022-12-19T08:38:10.662Z,0
2022-12-19T08:39:10.495Z,0
2022-12-19T08:40:13.641Z,0
2022-12-19T08:41:10.592Z,0
2022-12-19T08:42:10.640Z,0
2022-12-19T08:43:10.570Z,0
2022-12-19T08:44:10.574Z,0
2022-12-19T08:45:10.512Z,0
2022-12-19T08:46:10.946Z,0
2022-12-19T08:47:10.697Z,0
2022-12-19T08:48:10.715Z,0
2022-12-19T08:49:10.632Z,0
2022-12-19T08:50:10.494Z,0
2022-12-19T08:51:10.999Z,0
2022-12-19T08:52:10.706Z,0
2022-12-19T08:53:10.595Z,0
2022-12-19T08:54:11.846Z,98.931640625
2022-12-19T08:55:10.499Z,98.5859375
2022-12-19T08:56:16.624Z,98.0244140625
2022-12-19T08:57:10.683Z,97.2060546875
2022-12-19T08:58:10.488Z,97.5283203125
2022-12-19T08:59:10.494Z,97.6884765625
2022-12-19T09:00:10.711Z,97.5732421875
2022-12-19T09:01:10.991Z,97.7861328125
2022-12-19T09:02:10.910Z,97.919921875
2022-12-19T09:03:10.978Z,97.4033203125
2022-12-19T09:04:44.124Z,97.0205078125
2022-12-19T09:06:01.554Z,96.5244140625
2022-12-19T09:07:01.800Z,96.794921875
2022-12-19T09:07:57.789Z,96.2158203125
2022-12-19T09:08:59.909Z,95.8740234375
2022-12-19T09:09:57.773Z,96.001953125
2022-12-19T09:10:58.135Z,95.9375
2022-12-19T09:11:57.745Z,95.8623046875
2022-12-19T09:12:58.093Z,95.7353515625
2022-12-19T09:13:57.788Z,95.80078125
2022-12-19T09:14:57.849Z,95.673828125
2022-12-19T09:15:58.045Z,95.64453125
2022-12-19T09:16:57.829Z,95.4736328125
2022-12-19T09:18:00.793Z,94.833984375
2022-12-19T09:18:57.745Z,94.39453125
2022-12-19T09:19:58.136Z,94.1796875
2022-12-19T09:20:58.065Z,94.7060546875
2022-12-19T09:21:57.778Z,94.849609375
2022-12-19T09:22:57.664Z,95.02734375
2022-12-19T09:24:03.510Z,95.033203125
2022-12-19T09:24:57.697Z,93.9814453125
2022-12-19T09:25:58.146Z,94.5869140625
2022-12-19T09:26:57.883Z,94.3330078125
2022-12-19T09:28:25.767Z,93.6572265625
2022-12-19T09:29:00.865Z,93.80859375
2022-12-19T09:29:57.771Z,93.615234375
2022-12-19T09:30:58.251Z,93.6005859375
2022-12-19T09:31:57.867Z,93.6640625
2022-12-19T09:32:57.890Z,94.052734375
2022-12-19T09:33:57.789Z,94.177734375
2022-12-19T09:34:58.059Z,93.7294921875
2022-12-19T09:35:58.125Z,93.12109375
2022-12-19T09:36:57.889Z,93.802734375
2022-12-19T09:38:00.374Z,92.4833984375
2022-12-19T09:38:57.769Z,91.998046875
2022-12-19T09:40:00.815Z,92.26171875
2022-12-19T09:40:58.061Z,93.4453125
2022-12-19T09:41:57.737Z,96.0380859375
2022-12-19T09:42:57.750Z,96.779296875
2022-12-19T09:43:57.684Z,96.9267578125
2022-12-19T09:44:57.746Z,95.89453125
2022-12-19T09:45:57.691Z,96.2119140625
2022-12-19T09:46:57.804Z,96.6484375
2022-12-19T09:47:57.784Z,97.318359375
2022-12-19T09:48:57.765Z,97.2138671875
2022-12-19T09:49:58.058Z,96.5224609375
2022-12-19T09:51:10.301Z,94.5693359375
2022-12-19T09:51:57.762Z,95.1220703125
2022-12-19T09:52:57.783Z,95.0673828125
2022-12-19T09:53:57.854Z,95.5966796875
2022-12-19T09:54:57.652Z,95.2275390625
2022-12-19T09:55:58.121Z,94.9794921875
2022-12-19T09:56:57.795Z,93.732421875
2022-12-19T09:57:57.668Z,93.421875
2022-12-19T09:58:57.681Z,93.3154296875
2022-12-19T09:59:57.835Z,93.9814453125
2022-12-19T10:00:59.948Z,94.1923828125
2022-12-19T10:02:00.942Z,93.8203125
2022-12-19T10:02:58.120Z,94.5849609375
2022-12-19T10:03:57.872Z,94.4912109375
2022-12-19T10:05:05.557Z,94.9873046875
2022-12-19T10:07:11.418Z,94.09765625
2022-12-19T10:07:12.469Z,94.2841796875
2022-12-19T10:08:08.475Z,95.19921875
2022-12-19T10:09:54.131Z,95.689453125
2022-12-19T10:11:55.483Z,94.859375
2022-12-19T10:12:42.675Z,94.1044921875
2022-12-19T10:12:52.853Z,94.251953125
2022-12-19T10:13:44.472Z,93.9775390625
2022-12-19T10:14:44.318Z,93.7841796875
2022-12-19T10:15:44.719Z,93.9462890625
2022-12-19T10:17:02.011Z,93.1826171875
2022-12-19T10:17:44.319Z,92.45703125
2022-12-19T10:18:44.241Z,92.9736328125
2022-12-19T10:19:44.727Z,93.3232421875
2022-12-19T10:20:44.607Z,93.072265625
2022-12-19T10:22:16.332Z,93.640625
2022-12-19T10:22:44.233Z,93.8359375
2022-12-19T10:23:44.282Z,93.44921875
2022-12-19T10:24:44.225Z,93.609375
2022-12-19T10:25:44.681Z,92.8955078125
2022-12-19T10:26:44.332Z,91.439453125
2022-12-19T10:27:58.689Z,93.4912109375
2022-12-19T10:28:44.272Z,94.58203125
2022-12-19T10:29:44.235Z,94.890625
2022-12-19T10:30:44.779Z,93.1884765625
2022-12-19T10:31:44.456Z,94.1455078125
2022-12-19T10:32:44.398Z,95.619140625
2022-12-19T10:33:44.388Z,96.05859375
2022-12-19T10:34:44.670Z,97.15234375
2022-12-19T10:35:44.612Z,0
2022-12-19T10:37:12.896Z,0
2022-12-19T10:37:49.337Z,0
2022-12-19T10:38:51.242Z,0
2022-12-19T10:39:44.429Z,0
2022-12-19T10:40:44.612Z,0
2022-12-19T10:41:44.412Z,0
2022-12-19T10:42:44.227Z,0
2022-12-19T10:43:44.820Z,0
2022-12-19T10:44:44.312Z,0
2022-12-19T10:45:45.378Z,0
2022-12-19T10:46:44.405Z,0
2022-12-19T10:47:44.239Z,0
2022-12-19T10:48:44.263Z,0
2022-12-19T10:49:47.294Z,0
2022-12-19T10:50:44.603Z,0
2022-12-19T10:51:44.308Z,0
2022-12-19T10:52:44.221Z,0
2022-12-19T10:53:44.339Z,0
2022-12-19T10:54:44.375Z,0
2022-12-19T10:55:44.610Z,0
2022-12-19T10:56:44.354Z,0
2022-12-19T10:57:44.379Z,0
2022-12-19T10:58:44.629Z,0
2022-12-19T10:59:44.364Z,0
2022-12-19T11:00:50.426Z,0
2022-12-19T11:01:44.576Z,0
2022-12-19T11:02:44.570Z,0
2022-12-19T11:03:44.364Z,0
2022-12-19T11:04:44.740Z,0
2022-12-19T11:05:44.708Z,0
2022-12-19T11:06:44.271Z,0
2022-12-19T11:07:44.465Z,0
2022-12-19T11:08:44.370Z,0
2022-12-19T11:09:46.768Z,0
2022-12-19T11:11:05.645Z,0
2022-12-19T11:13:11.882Z,0
2022-12-19T11:17:44.404Z,0
2022-12-19T11:18:57.425Z,0
2022-12-19T11:19:33.128Z,0
2022-12-19T11:27:03.861Z,0
2022-12-19T11:29:16.169Z,0
2022-12-19T11:29:41.867Z,0
2022-12-19T11:29:44.648Z,0
2022-12-19T11:29:54.224Z,0
2022-12-19T11:30:37.377Z,0
2022-12-19T11:30:39.348Z,0
2022-12-19T11:30:43.170Z,0
2022-12-19T11:30:44.125Z,0
2022-12-19T11:31:51.130Z,0
2022-12-19T11:32:48.665Z,0
2022-12-19T11:33:48.035Z,0
2022-12-19T11:34:48.406Z,0
2022-12-19T11:35:48.168Z,0
2022-12-19T11:36:48.197Z,0
2022-12-19T11:37:55.118Z,0
2022-12-19T11:38:48.096Z,0
2022-12-19T11:39:48.019Z,0
2022-12-19T11:40:49.348Z,0
2022-12-19T11:41:48.059Z,0
2022-12-19T11:42:48.068Z,0
2022-12-19T11:43:48.003Z,0
2022-12-19T11:44:47.956Z,0
2022-12-19T11:45:48.447Z,0
2022-12-19T11:46:48.076Z,0
2022-12-19T11:47:47.955Z,0
2022-12-19T11:48:51.013Z,0
2022-12-19T11:49:48.409Z,0
2022-12-19T11:50:48.337Z,0
2022-12-19T11:51:47.964Z,0
2022-12-19T11:53:05.923Z,0
2022-12-19T11:53:48.049Z,0
2022-12-19T11:54:48.063Z,0
2022-12-19T11:55:48.405Z,0
2022-12-19T11:56:48.113Z,0
2022-12-19T11:57:48.102Z,0
2022-12-19T11:58:48.034Z,0
2022-12-19T11:59:51.026Z,0
2022-12-19T12:00:48.329Z,0
2022-12-19T12:01:48.247Z,0
2022-12-19T12:02:47.990Z,0
2022-12-19T12:04:01.999Z,0
2022-12-19T12:04:48.379Z,0
2022-12-19T12:05:48.328Z,0
2022-12-19T12:06:48.071Z,0
2022-12-19T12:07:58.715Z,0
2022-12-19T12:12:44.632Z,0
2022-12-19T12:13:30.354Z,0
2022-12-19T12:15:22.693Z,0
2022-12-19T12:23:57.438Z,0
2022-12-19T12:24:46.803Z,0
2022-12-19T12:24:48.052Z,0
2022-12-19T12:28:11.165Z,0
2022-12-19T12:31:00.905Z,0
2022-12-19T12:31:05.841Z,0
2022-12-19T12:31:08.295Z,0
2022-12-19T12:31:32.468Z,0